sensor_id;sensor_type;location;lat;lon;timestamp;pressure;altitude;pressure_sealevel;temperature;humidity
47430;BME280;33181;49.246;7.372;2023-04-30T00:00:07;99188.47;;;11.79;85.06
47430;BME280;33181;49.246;7.372;2023-04-30T00:02:34;99192.16;;;11.88;84.91
47430;BME280;33181;49.246;7.372;2023-04-30T00:05:00;99190.16;;;11.92;84.64
47430;BME280;33181;49.246;7.372;2023-04-30T00:07:26;99189.19;;;11.93;84.60
47430;BME280;33181;49.246;7.372;2023-04-30T00:09:52;99191.56;;;11.96;84.36
47430;BME280;33181;49.246;7.372;2023-04-30T00:12:18;99185.47;;;11.95;84.25
47430;BME280;33181;49.246;7.372;2023-04-30T00:14:44;99182.13;;;11.93;84.36
47430;BME280;33181;49.246;7.372;2023-04-30T00:17:09;99183.78;;;11.83;84.86
47430;BME280;33181;49.246;7.372;2023-04-30T00:19:36;99181.97;;;11.83;84.58
47430;BME280;33181;49.246;7.372;2023-04-30T00:22:03;99178.41;;;11.85;84.76
47430;BME280;33181;49.246;7.372;2023-04-30T00:24:30;99182.75;;;11.86;84.46
47430;BME280;33181;49.246;7.372;2023-04-30T00:26:56;99185.38;;;11.86;84.28
47430;BME280;33181;49.246;7.372;2023-04-30T00:29:21;99183.06;;;11.81;84.37
47430;BME280;33181;49.246;7.372;2023-04-30T00:31:47;99180.94;;;11.86;84.33
47430;BME280;33181;49.246;7.372;2023-04-30T00:34:13;99185.59;;;11.82;84.60
47430;BME280;33181;49.246;7.372;2023-04-30T00:36:39;99182.47;;;11.77;84.64
47430;BME280;33181;49.246;7.372;2023-04-30T00:39:05;99179.25;;;11.74;85.06
47430;BME280;33181;49.246;7.372;2023-04-30T00:41:35;99181.50;;;11.67;86.19
47430;BME280;33181;49.246;7.372;2023-04-30T00:44:01;99179.69;;;11.56;86.88
47430;BME280;33181;49.246;7.372;2023-04-30T00:46:27;99179.94;;;11.53;87.26
47430;BME280;33181;49.246;7.372;2023-04-30T00:48:53;99176.84;;;11.48;87.69
47430;BME280;33181;49.246;7.372;2023-04-30T00:51:19;99174.69;;;11.53;87.42
47430;BME280;33181;49.246;7.372;2023-04-30T00:53:45;99175.31;;;11.57;87.06
47430;BME280;33181;49.246;7.372;2023-04-30T00:56:12;99181.41;;;11.57;87.15
47430;BME280;33181;49.246;7.372;2023-04-30T00:58:41;99180.44;;;11.58;87.08
47430;BME280;33181;49.246;7.372;2023-04-30T01:01:06;99179.13;;;11.64;86.76
47430;BME280;33181;49.246;7.372;2023-04-30T01:03:33;99180.69;;;11.67;86.46
47430;BME280;33181;49.246;7.372;2023-04-30T01:06:01;99176.25;;;11.67;86.27
47430;BME280;33181;49.246;7.372;2023-04-30T01:08:29;99175.28;;;11.68;86.23
47430;BME280;33181;49.246;7.372;2023-04-30T01:16:32;99171.44;;;11.83;85.50
47430;BME280;33181;49.246;7.372;2023-04-30T01:19:49;99170.63;;;11.83;85.48
47430;BME280;33181;49.246;7.372;2023-04-30T01:21:51;99175.28;;;11.79;85.13
47430;BME280;33181;49.246;7.372;2023-04-30T01:24:48;99176.84;;;11.71;85.37
47430;BME280;33181;49.246;7.372;2023-04-30T01:30:42;99169.44;;;11.65;85.46
47430;BME280;33181;49.246;7.372;2023-04-30T01:33:12;99165.72;;;11.67;85.33
47430;BME280;33181;49.246;7.372;2023-04-30T01:38:49;99172.06;;;11.76;84.91
47430;BME280;33181;49.246;7.372;2023-04-30T01:47:08;99161.53;;;11.65;84.96
47430;BME280;33181;49.246;7.372;2023-04-30T01:52:48;99162.25;;;11.55;85.67
47430;BME280;33181;49.246;7.372;2023-04-30T01:58:03;99164.78;;;11.57;85.57
47430;BME280;33181;49.246;7.372;2023-04-30T02:00:29;99163.31;;;11.53;85.16
47430;BME280;33181;49.246;7.372;2023-04-30T02:02:57;99157.59;;;11.48;84.45
47430;BME280;33181;49.246;7.372;2023-04-30T02:05:23;99159.72;;;11.31;85.35
47430;BME280;33181;49.246;7.372;2023-04-30T02:07:51;99168.94;;;11.37;85.28
47430;BME280;33181;49.246;7.372;2023-04-30T02:10:25;99164.50;;;11.26;84.79
47430;BME280;33181;49.246;7.372;2023-04-30T02:12:52;99173.25;;;11.27;84.96
47430;BME280;33181;49.246;7.372;2023-04-30T02:15:18;99176.81;;;11.37;84.77
47430;BME280;33181;49.246;7.372;2023-04-30T02:17:44;99174.56;;;11.44;84.25
47430;BME280;33181;49.246;7.372;2023-04-30T02:20:10;99173.13;;;11.40;83.67
47430;BME280;33181;49.246;7.372;2023-04-30T02:22:36;99183.06;;;11.36;83.48
47430;BME280;33181;49.246;7.372;2023-04-30T02:25:03;99170.38;;;11.41;83.27
47430;BME280;33181;49.246;7.372;2023-04-30T02:27:30;99173.63;;;11.45;83.08
47430;BME280;33181;49.246;7.372;2023-04-30T02:29:57;99175.66;;;11.52;82.77
47430;BME280;33181;49.246;7.372;2023-04-30T02:32:24;99177.91;;;11.46;82.58
47430;BME280;33181;49.246;7.372;2023-04-30T02:34:50;99178.84;;;11.33;82.86
47430;BME280;33181;49.246;7.372;2023-04-30T02:37:16;99175.25;;;11.34;82.77
47430;BME280;33181;49.246;7.372;2023-04-30T02:39:42;99175.50;;;11.31;83.01
47430;BME280;33181;49.246;7.372;2023-04-30T02:42:08;99178.00;;;11.22;83.26
47430;BME280;33181;49.246;7.372;2023-04-30T02:44:34;99175.13;;;11.25;83.27
47430;BME280;33181;49.246;7.372;2023-04-30T02:47:00;99179.44;;;11.14;83.66
47430;BME280;33181;49.246;7.372;2023-04-30T02:49:27;99177.16;;;11.10;83.65
47430;BME280;33181;49.246;7.372;2023-04-30T02:51:54;99167.94;;;11.16;83.41
47430;BME280;33181;49.246;7.372;2023-04-30T02:54:20;99164.50;;;11.15;83.45
47430;BME280;33181;49.246;7.372;2023-04-30T02:56:46;99172.59;;;11.12;83.45
47430;BME280;33181;49.246;7.372;2023-04-30T02:59:12;99162.81;;;11.14;82.86
47430;BME280;33181;49.246;7.372;2023-04-30T03:01:38;99172.38;;;11.15;82.75
47430;BME280;33181;49.246;7.372;2023-04-30T03:04:04;99170.56;;;11.16;82.66
47430;BME280;33181;49.246;7.372;2023-04-30T03:06:31;99168.91;;;11.14;82.74
47430;BME280;33181;49.246;7.372;2023-04-30T03:08:58;99165.56;;;11.12;82.50
47430;BME280;33181;49.246;7.372;2023-04-30T03:11:24;99172.97;;;11.07;82.69
47430;BME280;33181;49.246;7.372;2023-04-30T03:13:50;99169.88;;;11.13;82.67
47430;BME280;33181;49.246;7.372;2023-04-30T03:16:20;99159.47;;;11.12;82.83
47430;BME280;33181;49.246;7.372;2023-04-30T03:18:47;99155.66;;;11.16;82.73
47430;BME280;33181;49.246;7.372;2023-04-30T03:21:13;99165.31;;;11.16;82.75
47430;BME280;33181;49.246;7.372;2023-04-30T03:23:39;99155.31;;;11.21;82.34
47430;BME280;33181;49.246;7.372;2023-04-30T03:26:06;99151.38;;;11.26;82.40
47430;BME280;33181;49.246;7.372;2023-04-30T03:28:33;99146.94;;;11.27;82.39
47430;BME280;33181;49.246;7.372;2023-04-30T03:31:00;99146.34;;;11.23;82.69
47430;BME280;33181;49.246;7.372;2023-04-30T03:33:30;99150.16;;;11.30;82.30
47430;BME280;33181;49.246;7.372;2023-04-30T03:35:56;99149.19;;;11.31;82.05
47430;BME280;33181;49.246;7.372;2023-04-30T03:38:22;99142.50;;;11.27;82.02
47430;BME280;33181;49.246;7.372;2023-04-30T03:40:48;99143.94;;;11.31;81.97
47430;BME280;33181;49.246;7.372;2023-04-30T03:43:16;99143.25;;;11.29;81.97
47430;BME280;33181;49.246;7.372;2023-04-30T03:45:42;99144.06;;;11.30;82.15
47430;BME280;33181;49.246;7.372;2023-04-30T03:48:08;99151.00;;;11.20;82.38
47430;BME280;33181;49.246;7.372;2023-04-30T03:50:34;99141.66;;;11.16;82.49
47430;BME280;33181;49.246;7.372;2023-04-30T03:53:00;99141.75;;;11.03;83.32
47430;BME280;33181;49.246;7.372;2023-04-30T03:55:26;99140.47;;;10.97;83.46
47430;BME280;33181;49.246;7.372;2023-04-30T03:57:54;99142.59;;;11.03;83.46
47430;BME280;33181;49.246;7.372;2023-04-30T04:00:20;99142.25;;;11.08;83.38
47430;BME280;33181;49.246;7.372;2023-04-30T04:02:47;99143.81;;;11.10;82.87
47430;BME280;33181;49.246;7.372;2023-04-30T04:05:14;99144.03;;;10.96;83.26
47430;BME280;33181;49.246;7.372;2023-04-30T04:07:40;99145.59;;;10.99;83.45
47430;BME280;33181;49.246;7.372;2023-04-30T04:10:06;99146.66;;;10.96;83.53
47430;BME280;33181;49.246;7.372;2023-04-30T04:12:32;99152.00;;;10.83;84.04
47430;BME280;33181;49.246;7.372;2023-04-30T04:14:58;99146.28;;;10.89;84.13
47430;BME280;33181;49.246;7.372;2023-04-30T04:17:24;99152.72;;;10.85;84.28
47430;BME280;33181;49.246;7.372;2023-04-30T04:19:50;99151.66;;;10.88;84.37
47430;BME280;33181;49.246;7.372;2023-04-30T04:22:16;99149.63;;;10.92;84.11
47430;BME280;33181;49.246;7.372;2023-04-30T04:24:42;99151.19;;;10.94;83.91
47430;BME280;33181;49.246;7.372;2023-04-30T04:27:07;99157.28;;;10.95;83.93
47430;BME280;33181;49.246;7.372;2023-04-30T04:29:33;99157.91;;;10.98;83.94
47430;BME280;33181;49.246;7.372;2023-04-30T04:31:59;99151.66;;;10.88;84.43
47430;BME280;33181;49.246;7.372;2023-04-30T04:34:27;99159.19;;;10.93;83.98
47430;BME280;33181;49.246;7.372;2023-04-30T04:36:52;99158.81;;;10.86;84.20
47430;BME280;33181;49.246;7.372;2023-04-30T04:39:18;99166.34;;;10.90;84.40
47430;BME280;33181;49.246;7.372;2023-04-30T04:41:44;99159.09;;;10.94;83.90
47430;BME280;33181;49.246;7.372;2023-04-30T04:44:10;99169.13;;;11.00;83.93
47430;BME280;33181;49.246;7.372;2023-04-30T04:46:36;99165.53;;;11.01;83.97
47430;BME280;33181;49.246;7.372;2023-04-30T04:49:06;99162.09;;;11.12;83.30
47430;BME280;33181;49.246;7.372;2023-04-30T04:51:32;99163.31;;;11.19;82.95
47430;BME280;33181;49.246;7.372;2023-04-30T04:53:58;99168.09;;;11.14;82.94
47430;BME280;33181;49.246;7.372;2023-04-30T04:56:25;99172.75;;;11.10;83.20
47430;BME280;33181;49.246;7.372;2023-04-30T04:58:51;99172.75;;;11.10;83.18
47430;BME280;33181;49.246;7.372;2023-04-30T05:01:17;99172.47;;;11.02;83.77
47430;BME280;33181;49.246;7.372;2023-04-30T05:03:43;99174.25;;;11.02;83.98
47430;BME280;33181;49.246;7.372;2023-04-30T05:06:09;99170.66;;;11.03;83.86
47430;BME280;33181;49.246;7.372;2023-04-30T05:08:35;99166.00;;;10.95;83.78
47430;BME280;33181;49.246;7.372;2023-04-30T05:11:01;99164.25;;;11.07;83.93
47430;BME280;33181;49.246;7.372;2023-04-30T05:13:26;99173.22;;;11.16;83.58
47430;BME280;33181;49.246;7.372;2023-04-30T05:15:53;99172.03;;;11.20;83.12
47430;BME280;33181;49.246;7.372;2023-04-30T05:18:19;99168.81;;;11.27;82.90
47430;BME280;33181;49.246;7.372;2023-04-30T05:20:45;99160.34;;;11.35;82.36
47430;BME280;33181;49.246;7.372;2023-04-30T05:23:11;99173.00;;;11.30;82.43
47430;BME280;33181;49.246;7.372;2023-04-30T05:25:37;99165.84;;;11.43;81.56
47430;BME280;33181;49.246;7.372;2023-04-30T05:28:03;99165.59;;;11.35;81.94
47430;BME280;33181;49.246;7.372;2023-04-30T05:30:29;99166.31;;;11.48;81.83
47430;BME280;33181;49.246;7.372;2023-04-30T05:32:57;99165.13;;;11.52;81.50
47430;BME280;33181;49.246;7.372;2023-04-30T05:35:23;99175.75;;;11.40;81.20
47430;BME280;33181;49.246;7.372;2023-04-30T05:37:50;99167.75;;;11.30;81.96
47430;BME280;33181;49.246;7.372;2023-04-30T05:40:18;99172.41;;;11.37;82.06
47430;BME280;33181;49.246;7.372;2023-04-30T05:42:44;99168.22;;;11.46;81.56
47430;BME280;33181;49.246;7.372;2023-04-30T05:45:11;99180.28;;;11.37;81.81
47430;BME280;33181;49.246;7.372;2023-04-30T05:47:39;99165.25;;;11.51;81.86
47430;BME280;33181;49.246;7.372;2023-04-30T05:50:06;99170.84;;;11.69;80.45
47430;BME280;33181;49.246;7.372;2023-04-30T05:52:32;99167.88;;;11.85;79.92
47430;BME280;33181;49.246;7.372;2023-04-30T05:54:58;99170.63;;;11.94;79.10
47430;BME280;33181;49.246;7.372;2023-04-30T05:57:24;99164.22;;;12.19;78.16
47430;BME280;33181;49.246;7.372;2023-04-30T05:59:49;99173.78;;;12.32;76.68
47430;BME280;33181;49.246;7.372;2023-04-30T06:02:15;99172.84;;;12.33;76.06
47430;BME280;33181;49.246;7.372;2023-04-30T06:04:41;99174.28;;;12.25;77.00
47430;BME280;33181;49.246;7.372;2023-04-30T06:07:08;99165.34;;;12.05;76.46
47430;BME280;33181;49.246;7.372;2023-04-30T06:09:33;99168.84;;;11.95;77.84
47430;BME280;33181;49.246;7.372;2023-04-30T06:11:59;99162.81;;;12.04;77.54
47430;BME280;33181;49.246;7.372;2023-04-30T06:14:27;99163.63;;;12.16;77.60
47430;BME280;33181;49.246;7.372;2023-04-30T06:16:53;99160.59;;;12.32;76.50
47430;BME280;33181;49.246;7.372;2023-04-30T06:19:18;99162.91;;;12.25;76.22
47430;BME280;33181;49.246;7.372;2023-04-30T06:21:45;99156.66;;;12.26;76.31
47430;BME280;33181;49.246;7.372;2023-04-30T06:24:11;99153.44;;;12.34;76.50
47430;BME280;33181;49.246;7.372;2023-04-30T06:26:37;99159.03;;;12.40;75.62
47430;BME280;33181;49.246;7.372;2023-04-30T06:29:03;99153.09;;;12.59;75.06
47430;BME280;33181;49.246;7.372;2023-04-30T06:31:30;99160.81;;;12.72;74.26
47430;BME280;33181;49.246;7.372;2023-04-30T06:33:55;99155.75;;;12.80;74.52
47430;BME280;33181;49.246;7.372;2023-04-30T06:36:21;99156.56;;;13.02;72.99
47430;BME280;33181;49.246;7.372;2023-04-30T06:38:47;99159.53;;;12.87;73.12
47430;BME280;33181;49.246;7.372;2023-04-30T06:41:13;99156.44;;;13.03;71.63
47430;BME280;33181;49.246;7.372;2023-04-30T06:43:41;99158.16;;;13.14;72.76
47430;BME280;33181;49.246;7.372;2023-04-30T06:46:08;99165.44;;;13.21;72.40
47430;BME280;33181;49.246;7.372;2023-04-30T06:48:33;99160.13;;;13.12;71.55
47430;BME280;33181;49.246;7.372;2023-04-30T06:50:59;99166.38;;;13.32;71.18
47430;BME280;33181;49.246;7.372;2023-04-30T06:53:25;99170.44;;;13.45;70.07
47430;BME280;33181;49.246;7.372;2023-04-30T06:55:51;99165.59;;;13.41;70.47
47430;BME280;33181;49.246;7.372;2023-04-30T06:58:18;99162.94;;;13.72;70.49
47430;BME280;33181;49.246;7.372;2023-04-30T07:00:44;99160.44;;;13.80;68.46
47430;BME280;33181;49.246;7.372;2023-04-30T07:03:10;99170.19;;;13.79;68.14
47430;BME280;33181;49.246;7.372;2023-04-30T07:05:36;99161.97;;;13.42;69.61
47430;BME280;33181;49.246;7.372;2023-04-30T07:08:03;99152.94;;;13.44;69.33
47430;BME280;33181;49.246;7.372;2023-04-30T07:10:29;99159.47;;;13.40;69.73
47430;BME280;33181;49.246;7.372;2023-04-30T07:12:56;99153.72;;;13.56;69.85
47430;BME280;33181;49.246;7.372;2023-04-30T07:15:22;99159.41;;;13.61;68.88
47430;BME280;33181;49.246;7.372;2023-04-30T07:17:48;99164.91;;;13.49;69.73
47430;BME280;33181;49.246;7.372;2023-04-30T07:20:15;99155.69;;;13.74;69.51
47430;BME280;33181;49.246;7.372;2023-04-30T07:22:42;99162.47;;;14.07;68.93
47430;BME280;33181;49.246;7.372;2023-04-30T07:25:14;99160.22;;;13.93;68.03
47430;BME280;33181;49.246;7.372;2023-04-30T07:27:40;99157.31;;;14.05;68.61
47430;BME280;33181;49.246;7.372;2023-04-30T07:30:07;99166.66;;;14.00;67.20
47430;BME280;33181;49.246;7.372;2023-04-30T07:32:35;99165.13;;;14.17;66.32
47430;BME280;33181;49.246;7.372;2023-04-30T07:35:02;99163.44;;;14.06;66.45
47430;BME280;33181;49.246;7.372;2023-04-30T07:37:28;99159.41;;;14.11;66.52
47430;BME280;33181;49.246;7.372;2023-04-30T07:39:54;99160.34;;;14.51;65.85
47430;BME280;33181;49.246;7.372;2023-04-30T07:42:20;99172.00;;;14.38;64.09
47430;BME280;33181;49.246;7.372;2023-04-30T07:44:45;99170.81;;;14.12;65.44
47430;BME280;33181;49.246;7.372;2023-04-30T07:47:13;99165.84;;;14.19;65.86
47430;BME280;33181;49.246;7.372;2023-04-30T07:49:39;99160.56;;;14.28;66.83
47430;BME280;33181;49.246;7.372;2023-04-30T07:52:05;99156.97;;;14.49;64.86
47430;BME280;33181;49.246;7.372;2023-04-30T07:54:33;99171.28;;;14.36;64.68
47430;BME280;33181;49.246;7.372;2023-04-30T07:57:01;99170.28;;;14.18;66.29
47430;BME280;33181;49.246;7.372;2023-04-30T07:59:28;99171.13;;;14.19;65.86
47430;BME280;33181;49.246;7.372;2023-04-30T08:01:53;99168.38;;;14.40;66.01
47430;BME280;33181;49.246;7.372;2023-04-30T08:04:19;99168.38;;;14.49;64.86
47430;BME280;33181;49.246;7.372;2023-04-30T08:06:45;99167.38;;;14.41;65.39
47430;BME280;33181;49.246;7.372;2023-04-30T08:09:11;99168.09;;;14.43;65.42
47430;BME280;33181;49.246;7.372;2023-04-30T08:11:37;99165.75;;;14.59;65.66
47430;BME280;33181;49.246;7.372;2023-04-30T08:14:03;99167.16;;;14.82;64.20
47430;BME280;33181;49.246;7.372;2023-04-30T08:16:31;99160.75;;;14.85;63.73
47430;BME280;33181;49.246;7.372;2023-04-30T08:18:57;99169.78;;;14.92;63.10
47430;BME280;33181;49.246;7.372;2023-04-30T08:21:23;99167.56;;;14.88;62.92
47430;BME280;33181;49.246;7.372;2023-04-30T08:23:50;99172.03;;;14.58;63.13
47430;BME280;33181;49.246;7.372;2023-04-30T08:26:16;99175.78;;;14.55;64.15
47430;BME280;33181;49.246;7.372;2023-04-30T08:28:41;99168.56;;;14.67;64.14
47430;BME280;33181;49.246;7.372;2023-04-30T08:31:07;99172.44;;;14.73;63.53
47430;BME280;33181;49.246;7.372;2023-04-30T08:33:33;99176.22;;;14.70;63.42
47430;BME280;33181;49.246;7.372;2023-04-30T08:35:59;99174.41;;;14.71;61.86
47430;BME280;33181;49.246;7.372;2023-04-30T08:38:26;99162.00;;;14.62;61.06
47430;BME280;33181;49.246;7.372;2023-04-30T08:41:10;99165.03;;;14.47;60.13
47430;BME280;33181;49.246;7.372;2023-04-30T08:43:37;99166.00;;;14.46;60.84
47430;BME280;33181;49.246;7.372;2023-04-30T08:46:04;99172.09;;;14.37;59.92
47430;BME280;33181;49.246;7.372;2023-04-30T08:48:31;99178.53;;;14.44;60.18
47430;BME280;33181;49.246;7.372;2023-04-30T08:51:04;99178.38;;;14.46;59.09
47430;BME280;33181;49.246;7.372;2023-04-30T08:53:33;99176.03;;;14.43;58.07
47430;BME280;33181;49.246;7.372;2023-04-30T08:56:00;99172.81;;;14.49;58.90
47430;BME280;33181;49.246;7.372;2023-04-30T08:58:26;99174.41;;;14.61;58.98
47430;BME280;33181;49.246;7.372;2023-04-30T09:00:52;99169.09;;;14.71;56.58
47430;BME280;33181;49.246;7.372;2023-04-30T09:03:18;99176.06;;;14.62;56.59
47430;BME280;33181;49.246;7.372;2023-04-30T09:05:46;99173.41;;;14.62;55.63
47430;BME280;33181;49.246;7.372;2023-04-30T09:08:17;99170.50;;;14.65;56.63
47430;BME280;33181;49.246;7.372;2023-04-30T09:10:46;99173.56;;;14.70;55.15
47430;BME280;33181;49.246;7.372;2023-04-30T09:13:12;99171.03;;;14.69;55.94
47430;BME280;33181;49.246;7.372;2023-04-30T09:15:39;99175.91;;;14.83;55.28
47430;BME280;33181;49.246;7.372;2023-04-30T09:18:10;99169.78;;;14.92;54.36
47430;BME280;33181;49.246;7.372;2023-04-30T09:20:37;99173.00;;;14.76;53.65
47430;BME280;33181;49.246;7.372;2023-04-30T09:23:09;99173.28;;;14.64;54.37
47430;BME280;33181;49.246;7.372;2023-04-30T09:25:40;99176.88;;;14.53;54.09
47430;BME280;33181;49.246;7.372;2023-04-30T09:28:10;99173.69;;;14.69;54.65
47430;BME280;33181;49.246;7.372;2023-04-30T09:30:38;99174.28;;;14.72;53.27
47430;BME280;33181;49.246;7.372;2023-04-30T09:33:05;99173.13;;;14.65;53.53
47430;BME280;33181;49.246;7.372;2023-04-30T09:35:32;99164.63;;;14.81;53.17
47430;BME280;33181;49.246;7.372;2023-04-30T09:38:00;99172.28;;;14.94;53.25
47430;BME280;33181;49.246;7.372;2023-04-30T09:40:37;99167.56;;;15.07;52.83
47430;BME280;33181;49.246;7.372;2023-04-30T09:43:05;99171.59;;;15.01;53.31
47430;BME280;33181;49.246;7.372;2023-04-30T09:45:46;99185.94;;;14.99;53.27
47430;BME280;33181;49.246;7.372;2023-04-30T09:48:24;99183.13;;;14.91;53.91
47430;BME280;33181;49.246;7.372;2023-04-30T09:50:52;99188.16;;;14.94;53.92
47430;BME280;33181;49.246;7.372;2023-04-30T09:53:19;99186.38;;;14.94;53.89
47430;BME280;33181;49.246;7.372;2023-04-30T09:55:49;99187.34;;;14.83;54.49
47430;BME280;33181;49.246;7.372;2023-04-30T09:58:17;99180.50;;;14.91;54.81
47430;BME280;33181;49.246;7.372;2023-04-30T10:00:45;99175.47;;;14.97;54.94
47430;BME280;33181;49.246;7.372;2023-04-30T10:03:14;99175.91;;;14.93;54.81
47430;BME280;33181;49.246;7.372;2023-04-30T10:05:47;99175.59;;;15.15;54.48
47430;BME280;33181;49.246;7.372;2023-04-30T10:08:36;99176.88;;;15.11;54.62
47430;BME280;33181;49.246;7.372;2023-04-30T10:11:07;99168.69;;;15.51;54.84
47430;BME280;33181;49.246;7.372;2023-04-30T10:13:54;99160.19;;;15.85;52.11
47430;BME280;33181;49.246;7.372;2023-04-30T10:17:13;99156.22;;;15.62;53.44
47430;BME280;33181;49.246;7.372;2023-04-30T10:19:45;99158.72;;;15.63;53.16
47430;BME280;33181;49.246;7.372;2023-04-30T10:22:12;99151.66;;;15.54;53.30
47430;BME280;33181;49.246;7.372;2023-04-30T10:24:39;99148.75;;;15.47;53.75
47430;BME280;33181;49.246;7.372;2023-04-30T10:27:06;99155.03;;;15.46;53.84
47430;BME280;33181;49.246;7.372;2023-04-30T10:29:32;99167.50;;;15.26;54.11
47430;BME280;33181;49.246;7.372;2023-04-30T10:31:59;99159.28;;;15.29;54.68
47430;BME280;33181;49.246;7.372;2023-04-30T10:39:47;99144.25;;;15.20;54.18
47430;BME280;33181;49.246;7.372;2023-04-30T10:42:13;99140.59;;;15.31;53.74
47430;BME280;33181;49.246;7.372;2023-04-30T10:44:39;99130.78;;;15.51;54.47
47430;BME280;33181;49.246;7.372;2023-04-30T10:47:06;99127.53;;;15.57;54.30
47430;BME280;33181;49.246;7.372;2023-04-30T10:49:32;99132.19;;;15.83;53.77
47430;BME280;33181;49.246;7.372;2023-04-30T10:52:02;99126.75;;;15.47;53.23
47430;BME280;33181;49.246;7.372;2023-04-30T10:54:35;99124.03;;;15.57;53.45
47430;BME280;33181;49.246;7.372;2023-04-30T10:57:13;99124.44;;;15.71;53.49
47430;BME280;33181;49.246;7.372;2023-04-30T11:00:16;99121.84;;;16.07;53.51
47430;BME280;33181;49.246;7.372;2023-04-30T11:02:45;99109.44;;;16.08;49.99
47430;BME280;33181;49.246;7.372;2023-04-30T11:05:15;99104.38;;;16.14;49.67
47430;BME280;33181;49.246;7.372;2023-04-30T11:07:48;99107.09;;;16.22;49.65
47430;BME280;33181;49.246;7.372;2023-04-30T11:10:14;99097.47;;;16.04;49.67
47430;BME280;33181;49.246;7.372;2023-04-30T11:12:47;99095.72;;;15.94;50.04
47430;BME280;33181;49.246;7.372;2023-04-30T11:15:16;99098.28;;;16.04;49.47
47430;BME280;33181;49.246;7.372;2023-04-30T11:17:44;99098.53;;;15.93;50.25
47430;BME280;33181;49.246;7.372;2023-04-30T11:20:20;99096.50;;;16.05;49.50
47430;BME280;33181;49.246;7.372;2023-04-30T11:22:47;99095.44;;;16.15;48.82
47430;BME280;33181;49.246;7.372;2023-04-30T11:25:18;99100.75;;;16.33;46.74
47430;BME280;33181;49.246;7.372;2023-04-30T11:27:45;99086.41;;;16.44;48.13
47430;BME280;33181;49.246;7.372;2023-04-30T11:30:16;99090.63;;;16.73;48.97
47430;BME280;33181;49.246;7.372;2023-04-30T11:32:45;99085.03;;;17.02;47.05
47430;BME280;33181;49.246;7.372;2023-04-30T11:35:16;99079.19;;;17.24;45.91
47430;BME280;33181;49.246;7.372;2023-04-30T11:37:43;99084.22;;;17.01;45.57
47430;BME280;33181;49.246;7.372;2023-04-30T11:40:12;99087.13;;;16.90;47.24
47430;BME280;33181;49.246;7.372;2023-04-30T11:42:40;99074.59;;;17.00;46.22
47430;BME280;33181;49.246;7.372;2023-04-30T11:45:15;99068.53;;;17.16;45.78
47430;BME280;33181;49.246;7.372;2023-04-30T11:47:55;99079.00;;;17.18;46.01
47430;BME280;33181;49.246;7.372;2023-04-30T11:50:31;99079.91;;;17.34;47.60
47430;BME280;33181;49.246;7.372;2023-04-30T11:52:59;99074.75;;;17.33;45.78
47430;BME280;33181;49.246;7.372;2023-04-30T11:55:29;99082.06;;;17.31;47.08
47430;BME280;33181;49.246;7.372;2023-04-30T11:57:56;99085.88;;;16.76;46.59
47430;BME280;33181;49.246;7.372;2023-04-30T12:00:28;99079.94;;;16.64;46.95
47430;BME280;33181;49.246;7.372;2023-04-30T12:02:57;99077.97;;;16.84;47.13
47430;BME280;33181;49.246;7.372;2023-04-30T12:05:26;99074.63;;;17.08;48.20
47430;BME280;33181;49.246;7.372;2023-04-30T12:08:03;99078.09;;;17.35;47.68
47430;BME280;33181;49.246;7.372;2023-04-30T12:10:31;99072.28;;;17.31;45.62
47430;BME280;33181;49.246;7.372;2023-04-30T12:12:57;99074.28;;;17.03;45.58
47430;BME280;33181;49.246;7.372;2023-04-30T12:15:25;99078.03;;;16.75;46.65
47430;BME280;33181;49.246;7.372;2023-04-30T12:18:09;99070.69;;;16.68;46.64
47430;BME280;33181;49.246;7.372;2023-04-30T12:20:36;99074.13;;;16.79;46.61
47430;BME280;33181;49.246;7.372;2023-04-30T12:23:02;99081.84;;;16.90;47.24
47430;BME280;33181;49.246;7.372;2023-04-30T12:25:29;99082.81;;;16.89;47.20
47430;BME280;33181;49.246;7.372;2023-04-30T12:27:58;99069.72;;;16.69;46.83
47430;BME280;33181;49.246;7.372;2023-04-30T12:30:25;99078.91;;;16.75;47.51
47430;BME280;33181;49.246;7.372;2023-04-30T12:32:55;99061.16;;;16.76;46.42
47430;BME280;33181;49.246;7.372;2023-04-30T12:35:22;99070.44;;;16.98;47.30
47430;BME280;33181;49.246;7.372;2023-04-30T12:37:52;99065.72;;;17.18;47.70
47430;BME280;33181;49.246;7.372;2023-04-30T12:40:26;99056.78;;;17.19;47.94
47430;BME280;33181;49.246;7.372;2023-04-30T12:43:06;99065.50;;;17.37;46.16
47430;BME280;33181;49.246;7.372;2023-04-30T12:45:53;99058.91;;;17.57;45.94
47430;BME280;33181;49.246;7.372;2023-04-30T12:48:24;99064.31;;;17.40;45.38
47430;BME280;33181;49.246;7.372;2023-04-30T12:50:55;99064.75;;;17.27;45.85
47430;BME280;33181;49.246;7.372;2023-04-30T12:53:23;99072.53;;;17.54;46.07
47430;BME280;33181;49.246;7.372;2023-04-30T12:56:09;99053.56;;;17.49;46.59
47430;BME280;33181;49.246;7.372;2023-04-30T12:58:35;99047.50;;;17.23;46.70
47430;BME280;33181;49.246;7.372;2023-04-30T13:01:01;99064.19;;;17.41;47.24
47430;BME280;33181;49.246;7.372;2023-04-30T13:03:26;99063.13;;;17.26;46.36
47430;BME280;33181;49.246;7.372;2023-04-30T13:05:52;99065.75;;;17.26;47.20
47430;BME280;33181;49.246;7.372;2023-04-30T13:08:20;99069.78;;;17.04;45.78
47430;BME280;33181;49.246;7.372;2023-04-30T13:10:47;99069.41;;;16.90;46.33
47430;BME280;33181;49.246;7.372;2023-04-30T13:13:15;99066.63;;;17.00;46.40
47430;BME280;33181;49.246;7.372;2023-04-30T13:15:42;99060.94;;;16.95;46.55
47430;BME280;33181;49.246;7.372;2023-04-30T13:18:08;99060.94;;;16.95;46.51
47430;BME280;33181;49.246;7.372;2023-04-30T13:20:38;99050.81;;;16.90;47.09
47430;BME280;33181;49.246;7.372;2023-04-30T13:23:05;99052.09;;;16.86;46.55
47430;BME280;33181;49.246;7.372;2023-04-30T13:25:32;99046.84;;;16.95;47.05
47430;BME280;33181;49.246;7.372;2023-04-30T13:27:58;99042.88;;;16.99;47.39
47430;BME280;33181;49.246;7.372;2023-04-30T13:30:24;99046.50;;;17.24;45.90
47430;BME280;33181;49.246;7.372;2023-04-30T13:32:50;99036.47;;;17.44;46.40